sensor_id;sensor_type;location;lat;lon;timestamp;P1;durP1;ratioP1;P2;durP2;ratioP2
39074;SDS011;24826;52.070;20.970;2023-04-07T00:00:59;18.38;;;11.82;;
39074;SDS011;24826;52.070;20.970;2023-04-07T00:03:43;17.80;;;11.35;;
39074;SDS011;24826;52.070;20.970;2023-04-07T00:06:28;17.80;;;12.35;;
39074;SDS011;24826;52.070;20.970;2023-04-07T00:09:12;17.83;;;11.93;;
39074;SDS011;24826;52.070;20.970;2023-04-07T00:11:57;20.88;;;12.25;;
39074;SDS011;24826;52.070;20.970;2023-04-07T00:14:41;19.58;;;12.38;;
39074;SDS011;24826;52.070;20.970;2023-04-07T00:17:25;19.70;;;12.30;;
39074;SDS011;24826;52.070;20.970;2023-04-07T00:20:10;24.48;;;13.68;;
39074;SDS011;24826;52.070;20.970;2023-04-07T00:22:55;24.23;;;13.73;;
39074;SDS011;24826;52.070;20.970;2023-04-07T00:25:40;21.17;;;12.93;;
39074;SDS011;24826;52.070;20.970;2023-04-07T00:28:24;21.00;;;13.13;;
39074;SDS011;24826;52.070;20.970;2023-04-07T00:31:09;22.17;;;13.90;;
39074;SDS011;24826;52.070;20.970;2023-04-07T00:33:53;22.27;;;14.55;;
39074;SDS011;24826;52.070;20.970;2023-04-07T00:36:39;19.70;;;13.77;;
39074;SDS011;24826;52.070;20.970;2023-04-07T00:39:23;23.35;;;14.25;;
39074;SDS011;24826;52.070;20.970;2023-04-07T00:42:08;20.00;;;13.70;;
39074;SDS011;24826;52.070;20.970;2023-04-07T00:44:53;21.63;;;14.20;;
39074;SDS011;24826;52.070;20.970;2023-04-07T00:47:37;20.45;;;14.23;;
39074;SDS011;24826;52.070;20.970;2023-04-07T00:50:21;20.23;;;13.05;;
39074;SDS011;24826;52.070;20.970;2023-04-07T00:53:06;21.52;;;14.10;;
39074;SDS011;24826;52.070;20.970;2023-04-07T00:55:51;19.95;;;13.75;;
39074;SDS011;24826;52.070;20.970;2023-04-07T00:58:36;21.65;;;13.93;;
39074;SDS011;24826;52.070;20.970;2023-04-07T01:01:21;24.60;;;14.32;;
39074;SDS011;24826;52.070;20.970;2023-04-07T01:04:08;21.73;;;13.98;;
39074;SDS011;24826;52.070;20.970;2023-04-07T01:07:05;22.05;;;14.13;;
39074;SDS011;24826;52.070;20.970;2023-04-07T01:10:02;23.02;;;15.32;;
39074;SDS011;24826;52.070;20.970;2023-04-07T01:13:08;21.80;;;13.43;;
39074;SDS011;24826;52.070;20.970;2023-04-07T01:16:18;22.30;;;14.27;;
39074;SDS011;24826;52.070;20.970;2023-04-07T01:19:15;24.13;;;14.23;;
39074;SDS011;24826;52.070;20.970;2023-04-07T01:22:20;24.25;;;15.43;;
39074;SDS011;24826;52.070;20.970;2023-04-07T01:30:44;26.05;;;15.43;;
39074;SDS011;24826;52.070;20.970;2023-04-07T01:33:31;25.25;;;15.95;;
39074;SDS011;24826;52.070;20.970;2023-04-07T01:36:18;24.77;;;15.75;;
39074;SDS011;24826;52.070;20.970;2023-04-07T01:39:04;27.48;;;15.55;;
39074;SDS011;24826;52.070;20.970;2023-04-07T01:41:50;25.77;;;16.02;;
39074;SDS011;24826;52.070;20.970;2023-04-07T01:44:36;28.55;;;16.50;;
39074;SDS011;24826;52.070;20.970;2023-04-07T01:47:21;23.27;;;15.90;;
39074;SDS011;24826;52.070;20.970;2023-04-07T01:50:06;27.73;;;16.58;;
39074;SDS011;24826;52.070;20.970;2023-04-07T01:52:53;24.83;;;15.25;;
39074;SDS011;24826;52.070;20.970;2023-04-07T01:55:38;25.60;;;15.63;;
39074;SDS011;24826;52.070;20.970;2023-04-07T01:58:23;26.20;;;16.83;;
39074;SDS011;24826;52.070;20.970;2023-04-07T02:01:09;26.35;;;16.88;;
39074;SDS011;24826;52.070;20.970;2023-04-07T02:07:14;23.35;;;15.50;;
39074;SDS011;24826;52.070;20.970;2023-04-07T02:10:03;27.65;;;16.30;;
39074;SDS011;24826;52.070;20.970;2023-04-07T02:12:51;25.45;;;16.33;;
39074;SDS011;24826;52.070;20.970;2023-04-07T02:15:39;26.15;;;16.85;;
39074;SDS011;24826;52.070;20.970;2023-04-07T02:18:25;25.20;;;16.38;;
39074;SDS011;24826;52.070;20.970;2023-04-07T02:21:16;23.88;;;16.00;;
39074;SDS011;24826;52.070;20.970;2023-04-07T02:24:05;24.48;;;15.82;;
39074;SDS011;24826;52.070;20.970;2023-04-07T02:26:50;24.15;;;15.45;;
39074;SDS011;24826;52.070;20.970;2023-04-07T02:29:34;30.15;;;17.15;;
39074;SDS011;24826;52.070;20.970;2023-04-07T02:32:19;26.27;;;16.33;;
39074;SDS011;24826;52.070;20.970;2023-04-07T02:35:03;24.52;;;16.33;;
39074;SDS011;24826;52.070;20.970;2023-04-07T02:37:48;26.83;;;17.33;;
39074;SDS011;24826;52.070;20.970;2023-04-07T02:40:33;28.88;;;18.17;;
39074;SDS011;24826;52.070;20.970;2023-04-07T02:43:19;30.80;;;19.17;;
39074;SDS011;24826;52.070;20.970;2023-04-07T02:46:04;30.05;;;18.83;;
39074;SDS011;24826;52.070;20.970;2023-04-07T02:48:49;33.95;;;20.17;;
39074;SDS011;24826;52.070;20.970;2023-04-07T02:51:35;29.42;;;20.25;;
39074;SDS011;24826;52.070;20.970;2023-04-07T02:54:19;30.15;;;19.92;;
39074;SDS011;24826;52.070;20.970;2023-04-07T02:57:04;32.28;;;20.38;;
39074;SDS011;24826;52.070;20.970;2023-04-07T02:59:48;32.13;;;19.63;;
39074;SDS011;24826;52.070;20.970;2023-04-07T03:02:33;31.83;;;19.95;;
39074;SDS011;24826;52.070;20.970;2023-04-07T03:05:17;32.05;;;20.00;;
39074;SDS011;24826;52.070;20.970;2023-04-07T03:08:01;35.97;;;21.63;;
39074;SDS011;24826;52.070;20.970;2023-04-07T03:10:46;33.83;;;22.17;;
39074;SDS011;24826;52.070;20.970;2023-04-07T03:13:30;35.05;;;21.48;;
39074;SDS011;24826;52.070;20.970;2023-04-07T03:16:15;31.67;;;20.25;;
39074;SDS011;24826;52.070;20.970;2023-04-07T03:19:00;33.60;;;20.02;;
39074;SDS011;24826;52.070;20.970;2023-04-07T03:21:44;33.85;;;20.27;;
39074;SDS011;24826;52.070;20.970;2023-04-07T03:24:28;33.97;;;19.63;;
39074;SDS011;24826;52.070;20.970;2023-04-07T03:27:13;36.13;;;20.83;;
39074;SDS011;24826;52.070;20.970;2023-04-07T03:29:57;35.33;;;22.02;;
39074;SDS011;24826;52.070;20.970;2023-04-07T03:32:42;36.95;;;22.63;;
39074;SDS011;24826;52.070;20.970;2023-04-07T03:35:26;36.67;;;20.40;;
39074;SDS011;24826;52.070;20.970;2023-04-07T03:38:10;36.83;;;20.77;;
39074;SDS011;24826;52.070;20.970;2023-04-07T03:40:55;35.47;;;21.33;;
39074;SDS011;24826;52.070;20.970;2023-04-07T03:43:39;35.35;;;21.63;;
39074;SDS011;24826;52.070;20.970;2023-04-07T03:46:24;35.50;;;21.70;;
39074;SDS011;24826;52.070;20.970;2023-04-07T03:49:09;33.13;;;21.30;;
39074;SDS011;24826;52.070;20.970;2023-04-07T03:51:54;36.40;;;21.67;;
39074;SDS011;24826;52.070;20.970;2023-04-07T03:54:38;40.42;;;23.35;;
39074;SDS011;24826;52.070;20.970;2023-04-07T03:57:23;37.90;;;22.95;;
39074;SDS011;24826;52.070;20.970;2023-04-07T04:00:08;35.88;;;22.38;;
39074;SDS011;24826;52.070;20.970;2023-04-07T04:02:53;35.45;;;22.05;;
39074;SDS011;24826;52.070;20.970;2023-04-07T04:05:38;34.40;;;21.90;;
39074;SDS011;24826;52.070;20.970;2023-04-07T04:08:23;37.88;;;21.67;;
39074;SDS011;24826;52.070;20.970;2023-04-07T04:11:08;34.28;;;23.02;;
39074;SDS011;24826;52.070;20.970;2023-04-07T04:13:53;37.30;;;23.27;;
39074;SDS011;24826;52.070;20.970;2023-04-07T04:16:37;38.70;;;23.35;;
39074;SDS011;24826;52.070;20.970;2023-04-07T04:19:22;37.15;;;23.08;;
39074;SDS011;24826;52.070;20.970;2023-04-07T04:22:06;36.70;;;22.95;;
39074;SDS011;24826;52.070;20.970;2023-04-07T04:24:51;36.95;;;23.00;;
39074;SDS011;24826;52.070;20.970;2023-04-07T04:27:35;36.20;;;23.67;;
39074;SDS011;24826;52.070;20.970;2023-04-07T04:30:20;37.38;;;22.98;;
39074;SDS011;24826;52.070;20.970;2023-04-07T04:33:05;39.60;;;23.30;;
39074;SDS011;24826;52.070;20.970;2023-04-07T04:35:50;41.55;;;24.15;;
39074;SDS011;24826;52.070;20.970;2023-04-07T04:38:34;36.05;;;23.88;;
39074;SDS011;24826;52.070;20.970;2023-04-07T04:41:19;36.75;;;22.77;;
39074;SDS011;24826;52.070;20.970;2023-04-07T04:44:03;38.13;;;22.83;;
39074;SDS011;24826;52.070;20.970;2023-04-07T04:46:48;44.35;;;25.45;;
39074;SDS011;24826;52.070;20.970;2023-04-07T04:49:32;37.42;;;22.35;;
39074;SDS011;24826;52.070;20.970;2023-04-07T04:52:17;38.05;;;23.98;;
39074;SDS011;24826;52.070;20.970;2023-04-07T04:55:02;35.00;;;23.08;;
39074;SDS011;24826;52.070;20.970;2023-04-07T04:57:46;42.28;;;24.45;;
39074;SDS011;24826;52.070;20.970;2023-04-07T05:00:30;37.42;;;23.35;;
39074;SDS011;24826;52.070;20.970;2023-04-07T05:03:15;41.25;;;24.90;;
39074;SDS011;24826;52.070;20.970;2023-04-07T05:05:59;37.83;;;24.50;;
39074;SDS011;24826;52.070;20.970;2023-04-07T05:08:44;40.42;;;24.77;;
39074;SDS011;24826;52.070;20.970;2023-04-07T05:11:28;42.90;;;26.92;;
39074;SDS011;24826;52.070;20.970;2023-04-07T05:14:13;40.05;;;25.67;;
39074;SDS011;24826;52.070;20.970;2023-04-07T05:16:58;39.63;;;24.50;;
39074;SDS011;24826;52.070;20.970;2023-04-07T05:19:43;39.08;;;25.33;;
39074;SDS011;24826;52.070;20.970;2023-04-07T05:22:28;43.17;;;25.27;;
39074;SDS011;24826;52.070;20.970;2023-04-07T05:25:12;45.85;;;26.23;;
39074;SDS011;24826;52.070;20.970;2023-04-07T05:27:57;36.17;;;24.17;;
39074;SDS011;24826;52.070;20.970;2023-04-07T05:30:42;39.05;;;25.15;;
39074;SDS011;24826;52.070;20.970;2023-04-07T05:33:26;43.03;;;25.85;;
39074;SDS011;24826;52.070;20.970;2023-04-07T05:36:11;39.55;;;25.30;;
39074;SDS011;24826;52.070;20.970;2023-04-07T05:38:56;37.50;;;24.52;;
39074;SDS011;24826;52.070;20.970;2023-04-07T05:41:41;44.58;;;26.08;;
39074;SDS011;24826;52.070;20.970;2023-04-07T05:44:25;44.05;;;26.42;;
39074;SDS011;24826;52.070;20.970;2023-04-07T05:47:10;39.05;;;25.33;;
39074;SDS011;24826;52.070;20.970;2023-04-07T05:49:54;42.60;;;26.05;;
39074;SDS011;24826;52.070;20.970;2023-04-07T05:52:39;43.00;;;26.65;;
39074;SDS011;24826;52.070;20.970;2023-04-07T05:55:24;40.45;;;25.85;;
39074;SDS011;24826;52.070;20.970;2023-04-07T05:58:08;48.45;;;27.42;;
39074;SDS011;24826;52.070;20.970;2023-04-07T06:00:53;45.38;;;27.83;;
39074;SDS011;24826;52.070;20.970;2023-04-07T06:03:37;42.47;;;27.05;;
39074;SDS011;24826;52.070;20.970;2023-04-07T06:06:24;40.22;;;27.33;;
39074;SDS011;24826;52.070;20.970;2023-04-07T06:09:09;40.58;;;26.98;;
39074;SDS011;24826;52.070;20.970;2023-04-07T06:11:54;41.78;;;25.88;;
39074;SDS011;24826;52.070;20.970;2023-04-07T06:14:40;41.83;;;26.77;;
39074;SDS011;24826;52.070;20.970;2023-04-07T06:17:24;39.35;;;26.10;;
39074;SDS011;24826;52.070;20.970;2023-04-07T06:20:09;43.45;;;27.80;;
39074;SDS011;24826;52.070;20.970;2023-04-07T06:22:53;39.67;;;26.00;;
39074;SDS011;24826;52.070;20.970;2023-04-07T06:25:40;44.45;;;26.67;;
39074;SDS011;24826;52.070;20.970;2023-04-07T06:28:24;37.17;;;25.48;;
39074;SDS011;24826;52.070;20.970;2023-04-07T06:31:09;41.60;;;26.42;;
39074;SDS011;24826;52.070;20.970;2023-04-07T06:33:53;39.85;;;26.30;;
39074;SDS011;24826;52.070;20.970;2023-04-07T06:36:38;43.55;;;26.60;;
39074;SDS011;24826;52.070;20.970;2023-04-07T06:39:24;42.35;;;25.92;;
39074;SDS011;24826;52.070;20.970;2023-04-07T06:42:10;38.90;;;26.02;;
39074;SDS011;24826;52.070;20.970;2023-04-07T06:44:55;40.78;;;26.35;;
39074;SDS011;24826;52.070;20.970;2023-04-07T06:47:39;37.83;;;25.38;;
39074;SDS011;24826;52.070;20.970;2023-04-07T06:50:24;46.15;;;26.70;;
39074;SDS011;24826;52.070;20.970;2023-04-07T06:53:08;41.42;;;28.05;;
39074;SDS011;24826;52.070;20.970;2023-04-07T06:56:02;46.72;;;28.25;;
39074;SDS011;24826;52.070;20.970;2023-04-07T06:58:51;43.50;;;27.52;;
39074;SDS011;24826;52.070;20.970;2023-04-07T07:01:35;39.60;;;26.58;;
39074;SDS011;24826;52.070;20.970;2023-04-07T07:04:20;41.45;;;27.20;;
39074;SDS011;24826;52.070;20.970;2023-04-07T07:07:05;39.17;;;26.48;;
39074;SDS011;24826;52.070;20.970;2023-04-07T07:09:49;39.45;;;26.38;;
39074;SDS011;24826;52.070;20.970;2023-04-07T07:12:34;41.83;;;27.75;;
39074;SDS011;24826;52.070;20.970;2023-04-07T07:15:18;42.90;;;28.48;;
39074;SDS011;24826;52.070;20.970;2023-04-07T07:18:03;48.60;;;29.00;;
39074;SDS011;24826;52.070;20.970;2023-04-07T07:20:48;37.85;;;26.67;;
39074;SDS011;24826;52.070;20.970;2023-04-07T07:23:33;41.70;;;28.13;;
39074;SDS011;24826;52.070;20.970;2023-04-07T07:26:18;37.88;;;26.67;;
39074;SDS011;24826;52.070;20.970;2023-04-07T07:29:02;42.60;;;27.92;;
39074;SDS011;24826;52.070;20.970;2023-04-07T07:31:47;40.78;;;26.35;;
39074;SDS011;24826;52.070;20.970;2023-04-07T07:34:31;44.03;;;27.10;;
39074;SDS011;24826;52.070;20.970;2023-04-07T07:37:16;38.78;;;27.08;;
39074;SDS011;24826;52.070;20.970;2023-04-07T07:40:00;42.22;;;27.35;;
39074;SDS011;24826;52.070;20.970;2023-04-07T07:42:45;42.17;;;27.13;;
39074;SDS011;24826;52.070;20.970;2023-04-07T07:45:30;37.97;;;27.05;;
39074;SDS011;24826;52.070;20.970;2023-04-07T07:48:14;36.42;;;26.42;;
39074;SDS011;24826;52.070;20.970;2023-04-07T07:50:59;38.35;;;27.30;;
39074;SDS011;24826;52.070;20.970;2023-04-07T07:53:44;43.03;;;28.38;;
39074;SDS011;24826;52.070;20.970;2023-04-07T07:56:28;46.63;;;29.25;;
39074;SDS011;24826;52.070;20.970;2023-04-07T07:59:13;42.78;;;28.05;;
39074;SDS011;24826;52.070;20.970;2023-04-07T08:01:57;37.97;;;26.85;;
39074;SDS011;24826;52.070;20.970;2023-04-07T08:04:42;36.90;;;26.13;;
39074;SDS011;24826;52.070;20.970;2023-04-07T08:07:27;38.72;;;26.73;;
39074;SDS011;24826;52.070;20.970;2023-04-07T08:10:12;40.42;;;27.55;;
39074;SDS011;24826;52.070;20.970;2023-04-07T08:12:56;44.28;;;28.25;;
39074;SDS011;24826;52.070;20.970;2023-04-07T08:15:41;40.30;;;26.55;;
39074;SDS011;24826;52.070;20.970;2023-04-07T08:18:26;37.10;;;26.25;;
39074;SDS011;24826;52.070;20.970;2023-04-07T08:21:10;36.75;;;27.50;;
39074;SDS011;24826;52.070;20.970;2023-04-07T08:23:55;40.03;;;27.23;;
39074;SDS011;24826;52.070;20.970;2023-04-07T08:26:40;40.00;;;27.55;;
39074;SDS011;24826;52.070;20.970;2023-04-07T08:29:24;37.42;;;26.95;;
39074;SDS011;24826;52.070;20.970;2023-04-07T08:32:08;37.95;;;26.25;;
39074;SDS011;24826;52.070;20.970;2023-04-07T08:34:54;37.97;;;25.42;;
39074;SDS011;24826;52.070;20.970;2023-04-07T08:37:40;38.83;;;26.60;;
39074;SDS011;24826;52.070;20.970;2023-04-07T08:40:24;35.47;;;25.13;;
39074;SDS011;24826;52.070;20.970;2023-04-07T08:43:09;36.63;;;25.23;;
39074;SDS011;24826;52.070;20.970;2023-04-07T08:45:56;37.58;;;25.30;;
39074;SDS011;24826;52.070;20.970;2023-04-07T08:48:41;35.28;;;25.52;;
39074;SDS011;24826;52.070;20.970;2023-04-07T08:51:30;38.50;;;24.35;;
39074;SDS011;24826;52.070;20.970;2023-04-07T08:54:16;33.45;;;23.92;;
39074;SDS011;24826;52.070;20.970;2023-04-07T08:57:02;35.03;;;24.98;;
39074;SDS011;24826;52.070;20.970;2023-04-07T08:59:46;31.15;;;24.63;;
39074;SDS011;24826;52.070;20.970;2023-04-07T09:02:41;32.33;;;24.52;;
39074;SDS011;24826;52.070;20.970;2023-04-07T09:05:28;34.22;;;23.58;;
39074;SDS011;24826;52.070;20.970;2023-04-07T09:08:13;33.60;;;24.92;;
39074;SDS011;24826;52.070;20.970;2023-04-07T09:10:58;33.67;;;24.27;;
39074;SDS011;24826;52.070;20.970;2023-04-07T09:13:42;33.72;;;23.98;;
39074;SDS011;24826;52.070;20.970;2023-04-07T09:16:27;30.70;;;22.83;;
39074;SDS011;24826;52.070;20.970;2023-04-07T09:19:13;32.35;;;23.90;;
39074;SDS011;24826;52.070;20.970;2023-04-07T09:21:58;32.83;;;23.40;;
39074;SDS011;24826;52.070;20.970;2023-04-07T09:24:43;34.60;;;23.88;;
39074;SDS011;24826;52.070;20.970;2023-04-07T09:27:28;32.25;;;22.13;;
39074;SDS011;24826;52.070;20.970;2023-04-07T09:30:12;32.13;;;22.90;;
39074;SDS011;24826;52.070;20.970;2023-04-07T09:32:59;30.55;;;22.13;;
39074;SDS011;24826;52.070;20.970;2023-04-07T09:35:52;30.20;;;21.85;;
39074;SDS011;24826;52.070;20.970;2023-04-07T09:38:38;29.48;;;21.52;;
39074;SDS011;24826;52.070;20.970;2023-04-07T09:41:23;32.33;;;23.35;;
39074;SDS011;24826;52.070;20.970;2023-04-07T09:44:11;32.58;;;22.10;;
39074;SDS011;24826;52.070;20.970;2023-04-07T09:46:56;37.15;;;24.85;;
39074;SDS011;24826;52.070;20.970;2023-04-07T09:49:52;33.75;;;23.73;;
39074;SDS011;24826;52.070;20.970;2023-04-07T09:52:51;31.45;;;21.10;;
39074;SDS011;24826;52.070;20.970;2023-04-07T09:55:35;29.30;;;21.25;;
39074;SDS011;24826;52.070;20.970;2023-04-07T09:58:22;30.90;;;22.40;;
39074;SDS011;24826;52.070;20.970;2023-04-07T10:01:07;32.28;;;21.08;;
39074;SDS011;24826;52.070;20.970;2023-04-07T10:03:52;28.38;;;20.42;;
39074;SDS011;24826;52.070;20.970;2023-04-07T10:06:39;33.05;;;22.05;;
39074;SDS011;24826;52.070;20.970;2023-04-07T10:09:25;34.35;;;20.55;;
39074;SDS011;24826;52.070;20.970;2023-04-07T10:12:11;28.90;;;20.13;;
39074;SDS011;24826;52.070;20.970;2023-04-07T10:14:57;26.95;;;18.88;;
39074;SDS011;24826;52.070;20.970;2023-04-07T10:17:45;26.23;;;19.23;;
39074;SDS011;24826;52.070;20.970;2023-04-07T10:20:33;26.92;;;19.52;;
39074;SDS011;24826;52.070;20.970;2023-04-07T10:23:21;28.80;;;19.88;;
39074;SDS011;24826;52.070;20.970;2023-04-07T10:26:11;25.63;;;19.63;;
39074;SDS011;24826;52.070;20.970;2023-04-07T10:29:05;31.08;;;19.48;;
39074;SDS011;24826;52.070;20.970;2023-04-07T10:31:53;28.30;;;18.98;;
39074;SDS011;24826;52.070;20.970;2023-04-07T10:37:34;27.13;;;18.55;;
39074;SDS011;24826;52.070;20.970;2023-04-07T10:43:04;26.42;;;18.27;;
39074;SDS011;24826;52.070;20.970;2023-04-07T10:45:58;27.35;;;18.45;;
39074;SDS011;24826;52.070;20.970;2023-04-07T10:48:43;24.75;;;17.63;;
39074;SDS011;24826;52.070;20.970;2023-04-07T10:52:34;24.15;;;17.98;;
39074;SDS011;24826;52.070;20.970;2023-04-07T10:58:28;24.48;;;18.00;;
39074;SDS011;24826;52.070;20.970;2023-04-07T11:03:58;28.17;;;18.35;;
39074;SDS011;24826;52.070;20.970;2023-04-07T11:06:46;29.50;;;19.08;;
39074;SDS011;24826;52.070;20.970;2023-04-07T11:09:31;26.23;;;19.02;;
39074;SDS011;24826;52.070;20.970;2023-04-07T11:12:22;24.30;;;19.48;;
39074;SDS011;24826;52.070;20.970;2023-04-07T11:18:05;24.83;;;18.48;;
39074;SDS011;24826;52.070;20.970;2023-04-07T11:21:08;27.55;;;19.30;;
39074;SDS011;24826;52.070;20.970;2023-04-07T11:23:52;27.33;;;18.60;;
39074;SDS011;24826;52.070;20.970;2023-04-07T11:26:37;25.33;;;18.13;;
39074;SDS011;24826;52.070;20.970;2023-04-07T11:29:26;26.65;;;18.85;;
39074;SDS011;24826;52.070;20.970;2023-04-07T11:32:21;23.48;;;17.60;;
39074;SDS011;24826;52.070;20.970;2023-04-07T11:35:08;27.02;;;18.95;;
39074;SDS011;24826;52.070;20.970;2023-04-07T11:37:59;24.48;;;19.02;;
39074;SDS011;24826;52.070;20.970;2023-04-07T11:40:45;27.58;;;18.42;;
39074;SDS011;24826;52.070;20.970;2023-04-07T11:43:29;26.13;;;19.33;;
39074;SDS011;24826;52.070;20.970;2023-04-07T11:46:14;25.23;;;18.60;;
39074;SDS011;24826;52.070;20.970;2023-04-07T11:49:10;24.58;;;17.70;;
39074;SDS011;24826;52.070;20.970;2023-04-07T11:52:03;25.73;;;18.02;;
39074;SDS011;24826;52.070;20.970;2023-04-07T11:54:50;25.42;;;18.27;;
39074;SDS011;24826;52.070;20.970;2023-04-07T11:57:34;28.45;;;19.38;;
39074;SDS011;24826;52.070;20.970;2023-04-07T12:00:19;23.65;;;17.85;;
39074;SDS011;24826;52.070;20.970;2023-04-07T12:03:08;27.08;;;18.17;;
39074;SDS011;24826;52.070;20.970;2023-04-07T12:05:59;21.60;;;17.02;;
39074;SDS011;24826;52.070;20.970;2023-04-07T12:08:47;26.50;;;18.10;;
39074;SDS011;24826;52.070;20.970;2023-04-07T12:11:32;23.58;;;17.73;;
39074;SDS011;24826;52.070;20.970;2023-04-07T12:14:16;24.20;;;18.23;;
39074;SDS011;24826;52.070;20.970;2023-04-07T12:17:01;21.80;;;17.23;;
39074;SDS011;24826;52.070;20.970;2023-04-07T12:19:46;23.40;;;17.30;;
39074;SDS011;24826;52.070;20.970;2023-04-07T12:22:31;22.10;;;16.70;;
39074;SDS011;24826;52.070;20.970;2023-04-07T12:25:15;25.13;;;17.08;;
39074;SDS011;24826;52.070;20.970;2023-04-07T12:27:59;21.73;;;16.13;;
39074;SDS011;24826;52.070;20.970;2023-04-07T12:30:43;21.25;;;13.38;;
39074;SDS011;24826;52.070;20.970;2023-04-07T12:33:29;18.77;;;12.43;;
39074;SDS011;24826;52.070;20.970;2023-04-07T12:36:14;16.10;;;11.52;;
39074;SDS011;24826;52.070;20.970;2023-04-07T12:38:58;12.13;;;9.40;;
39074;SDS011;24826;52.070;20.970;2023-04-07T12:41:42;10.60;;;7.78;;
39074;SDS011;24826;52.070;20.970;2023-04-07T12:44:28;10.82;;;6.80;;
39074;SDS011;24826;52.070;20.970;2023-04-07T12:47:13;7.70;;;5.47;;
39074;SDS011;24826;52.070;20.970;2023-04-07T12:49:58;9.23;;;5.47;;
39074;SDS011;24826;52.070;20.970;2023-04-07T12:52:42;6.65;;;4.97;;
39074;SDS011;24826;52.070;20.970;2023-04-07T12:55:27;6.30;;;4.00;;
39074;SDS011;24826;52.070;20.970;2023-04-07T12:58:12;7.07;;;3.90;;
39074;SDS011;24826;52.070;20.970;2023-04-07T13:00:57;6.57;;;4.10;;
39074;SDS011;24826;52.070;20.970;2023-04-07T13:03:43;6.00;;;3.55;;
39074;SDS011;24826;52.070;20.970;2023-04-07T13:06:28;7.07;;;4.00;;
39074;SDS011;24826;52.070;20.970;2023-04-07T13:09:13;6.65;;;4.30;;
39074;SDS011;24826;52.070;20.970;2023-04-07T13:11:58;6.80;;;4.00;;
39074;SDS011;24826;52.070;20.970;2023-04-07T13:14:42;7.43;;;3.85;;
39074;SDS011;24826;52.070;20.970;2023-04-07T13:17:27;6.93;;;4.28;;
39074;SDS011;24826;52.070;20.970;2023-04-07T13:20:11;5.15;;;3.47;;
39074;SDS011;24826;52.070;20.970;2023-04-07T13:22:56;7.40;;;4.05;;
39074;SDS011;24826;52.070;20.970;2023-04-07T13:25:40;5.95;;;3.70;;
39074;SDS011;24826;52.070;20.970;2023-04-07T13:28:25;6.90;;;3.65;;
39074;SDS011;24826;52.070;20.970;2023-04-07T13:31:10;7.40;;;3.83;;
39074;SDS011;24826;52.070;20.970;2023-04-07T13:33:58;9.25;;;3.90;;
39074;SDS011;24826;52.070;20.970;2023-04-07T13:36:42;8.65;;;4.15;;
39074;SDS011;24826;52.070;20.970;2023-04-07T13:39:27;7.15;;;3.60;;
39074;SDS011;24826;52.070;20.970;2023-04-07T13:42:12;7.30;;;3.70;;
39074;SDS011;24826;52.070;20.970;2023-04-07T13:45:00;6.53;;;3.92;;
39074;SDS011;24826;52.070;20.970;2023-04-07T13:47:44;9.13;;;4.32;;
39074;SDS011;24826;52.070;20.970;2023-04-07T13:50:30;5.93;;;3.58;;
39074;SDS011;24826;52.070;20.970;2023-04-07T13:53:14;7.32;;;4.10;;
39074;SDS011;24826;52.070;20.970;2023-04-07T13:55:59;7.03;;;3.90;;
39074;SDS011;24826;52.070;20.970;2023-04-07T13:58:44;6.78;;;3.40;;
39074;SDS011;24826;52.070;20.970;2023-04-07T14:01:28;7.18;;;4.20;;
39074;SDS011;24826;52.070;20.970;2023-04-07T14:04:13;7.28;;;3.95;;
39074;SDS011;24826;52.070;20.970;2023-04-07T14:06:57;6.88;;;3.75;;
39074;SDS011;24826;52.070;20.970;2023-04-07T14:09:42;8.88;;;3.33;;
39074;SDS011;24826;52.070;20.970;2023-04-07T14:12:26;6.20;;;3.72;;
39074;SDS011;24826;52.070;20.970;2023-04-07T14:15:10;5.88;;;2.80;;
39074;SDS011;24826;52.070;20.970;2023-04-07T14:17:55;6.25;;;2.40;;
39074;SDS011;24826;52.070;20.970;2023-04-07T14:20:40;4.75;;;2.10;;
39074;SDS011;24826;52.070;20.970;2023-04-07T14:23:24;5.57;;;2.30;;
39074;SDS011;24826;52.070;20.970;2023-04-07T14:26:11;4.65;;;2.20;;
39074;SDS011;24826;52.070;20.970;2023-04-07T14:28:56;5.57;;;2.60;;
39074;SDS011;24826;52.070;20.970;2023-04-07T14:31:41;6.60;;;2.55;;
39074;SDS011;24826;52.070;20.970;2023-04-07T14:34:25;3.63;;;2.00;;
39074;SDS011;24826;52.070;20.970;2023-04-07T14:37:10;5.28;;;2.70;;
39074;SDS011;24826;52.070;20.970;2023-04-07T14:39:55;4.80;;;2.60;;
39074;SDS011;24826;52.070;20.970;2023-04-07T14:42:39;6.38;;;3.03;;
39074;SDS011;24826;52.070;20.970;2023-04-07T14:45:25;5.88;;;3.17;;
39074;SDS011;24826;52.070;20.970;2023-04-07T14:48:09;5.68;;;2.88;;
39074;SDS011;24826;52.070;20.970;2023-04-07T14:50:54;6.82;;;3.65;;
39074;SDS011;24826;52.070;20.970;2023-04-07T14:53:41;5.88;;;3.22;;
39074;SDS011;24826;52.070;20.970;2023-04-07T14:56:26;8.52;;;3.78;;
39074;SDS011;24826;52.070;20.970;2023-04-07T14:59:11;7.15;;;3.50;;
39074;SDS011;24826;52.070;20.970;2023-04-07T15:01:55;6.20;;;3.63;;
39074;SDS011;24826;52.070;20.970;2023-04-07T15:04:40;7.72;;;4.28;;
39074;SDS011;24826;52.070;20.970;2023-04-07T15:07:24;7.70;;;3.72;;
39074;SDS011;24826;52.070;20.970;2023-04-07T15:10:09;6.47;;;3.72;;
39074;SDS011;24826;52.070;20.970;2023-04-07T15:12:53;6.53;;;3.80;;
39074;SDS011;24826;52.070;20.970;2023-04-07T15:15:38;8.20;;;3.92;;
39074;SDS011;24826;52.070;20.970;2023-04-07T15:18:22;7.25;;;4.03;;
39074;SDS011;24826;52.070;20.970;2023-04-07T15:21:07;7.38;;;4.10;;
39074;SDS011;24826;52.070;20.970;2023-04-07T15:23:55;6.20;;;3.42;;
39074;SDS011;24826;52.070;20.970;2023-04-07T15:26:39;6.65;;;3.83;;
39074;SDS011;24826;52.070;20.970;2023-04-07T15:29:24;9.93;;;4.15;;
39074;SDS011;24826;52.070;20.970;2023-04-07T15:32:08;6.45;;;3.33;;
39074;SDS011;24826;52.070;20.970;2023-04-07T15:34:52;7.00;;;4.45;;
39074;SDS011;24826;52.070;20.970;2023-04-07T15:37:37;7.90;;;4.03;;
39074;SDS011;24826;52.070;20.970;2023-04-07T15:40:21;6.00;;;3.35;;
39074;SDS011;24826;52.070;20.970;2023-04-07T15:43:06;6.55;;;3.17;;
39074;SDS011;24826;52.070;20.970;2023-04-07T15:45:53;6.43;;;3.75;;
39074;SDS011;24826;52.070;20.970;2023-04-07T15:48:38;8.10;;;3.65;;
39074;SDS011;24826;52.070;20.970;2023-04-07T15:51:23;6.60;;;3.50;;
39074;SDS011;24826;52.070;20.970;2023-04-07T15:54:09;6.55;;;3.75;;
39074;SDS011;24826;52.070;20.970;2023-04-07T15:56:54;5.75;;;2.92;;
39074;SDS011;24826;52.070;20.970;2023-04-07T15:59:38;6.55;;;3.15;;
39074;SDS011;24826;52.070;20.970;2023-04-07T16:02:24;6.80;;;3.53;;
39074;SDS011;24826;52.070;20.970;2023-04-07T16:05:08;6.88;;;3.63;;
39074;SDS011;24826;52.070;20.970;2023-04-07T16:07:53;8.73;;;3.75;;
39074;SDS011;24826;52.070;20.970;2023-04-07T16:10:37;7.50;;;3.35;;
39074;SDS011;24826;52.070;20.970;2023-04-07T16:13:22;6.10;;;3.03;;
39074;SDS011;24826;52.070;20.970;2023-04-07T16:16:06;5.22;;;2.83;;
39074;SDS011;24826;52.070;20.970;2023-04-07T16:18:51;7.30;;;3.28;;
39074;SDS011;24826;52.070;20.970;2023-04-07T16:21:35;6.13;;;3.30;;
39074;SDS011;24826;52.070;20.970;2023-04-07T16:24:22;5.45;;;3.00;;
39074;SDS011;24826;52.070;20.970;2023-04-07T16:27:06;6.38;;;3.50;;